AirNav   Everest Fuels
 
 1431 users online  

PS03 Elephant Path Airport
Perkasie, Pennsylvania, USA

GOING TO PERKASIE?


FAA INFORMATION EFFECTIVE 30 DECEMBER 2021

Location

FAA Identifier: PS03
Lat/Long: 40-24-28.0300N 075-13-56.9000W
40-24.467167N 075-13.948333W
40.4077861,-75.2324722
(estimated)
Elevation: 370 ft. / 113 m (estimated)
Variation: 12W (1985)
From city: 4 miles NE of PERKASIE, PA
Time zone: UTC -5 (UTC -4 during Daylight Saving Time)
Zip code: 18944

Airport Operations

Airport use: Private use. Permission required prior to landing
Activation date: 03/1983
Control tower: no
ARTCC: NEW YORK CENTER
FSS: WILLIAMSPORT FLIGHT SERVICE STATION
Attendance: UNATNDD
Wind indicator: yes
Segmented circle: no
Lights: FOR LIRL RWY 05/23 CALL 215-258-2326.

Airport Communications

WX AWOS-3 at CKZ (2.9 nm SW): 126.325 (215-257-7291)
WX ASOS at DYL (7 nm SE): 118.875 (215-345-0392)
WX AWOS-3 at UKT (7 nm W): 119.475 (215-538-7610)
WX AWOS-3 at N40 (15 nm NE): 121.725
WX AWOS-3 at XLL (15 nm NW): 127.875 (610-231-3111)
WX AWOS-3 at LOM (16 nm S): 118.925 (215-646-1068)
WX ASOS at ABE (17 nm NW): 126.975 (610-264-1765)
WX ASOS at PTW (18 nm SW): 119.425 (610-495-0823)

Nearby radio navigation aids

VOR radial/distance  VOR name  Freq  Var
ARDr312/17.5YARDLEY VOR/DME108.2010W
PTWr062/18.7POTTSTOWN VORTAC116.5009W
FJCr162/21.7ALLENTOWN VORTAC117.5010W
ETXr126/23.1EAST TEXAS VOR/DME110.2009W
SBJr255/24.7SOLBERG VOR/DME112.9010W
BWZr230/30.0BROADWAY VOR/DME114.2011W
MXEr043/35.6MODENA VORTAC113.2009W
RBVr300/35.9ROBBINSVILLE VORTAC113.8010W
GXUr321/37.7MC GUIRE VORTAC110.6012W
STWr216/39.0STILLWATER VOR/DME109.6011W

 
NDB name  Hdg/Dist  Freq  Var  ID
AMBLER020/17.127512WING .. -. --.

Airport Services

Runway Information

Runway 5/23

Dimensions: 2750 x 35 ft. / 838 x 11 m
Surface: asphalt
Runway edge lights: low intensity
RUNWAY 5  RUNWAY 23
Traffic pattern: rightleft
Obstructions: 56 ft. trees, 537 ft. from runway, 55 ft. right of centerline44 ft. trees, 608 ft. from runway, 63 ft. left of centerline

Airport Ownership and Management from official FAA records

Ownership: Privately-owned
Owner: ELEPHANT PATH H/O ASSOC.
218 ELEPHANT PATH
PERKASIE, PA 18944
Phone 215-680-0780
Manager: GEORGE MILLER
218 ELEPHANT PATH
PERKASIE, PA 18944
Phone 215-680-0780
ALEX RANKIN - 215-258-2326.

Airport Operational Statistics

Aircraft based on the field: 4
Single engine airplanes: 3
Helicopters: 1
    

Additional Remarks

FOR CD CTC PHILADELPHIA APCH AT 800-354-9884.

Instrument Procedures

There are no published instrument procedures at PS03.

Some nearby airports with instrument procedures:

KCKZ - Pennridge Airport (3 nm SW)
KDYL - Doylestown Airport (7 nm SE)
KUKT - Quakertown Airport (7 nm W)
N85 - Alexandria Airport (15 nm NE)
N40 - Sky Manor Airport (15 nm NE)
KXLL - Allentown Queen City Municipal Airport (15 nm NW)
KLOM - Wings Field Airport (16 nm S)
KABE - Lehigh Valley International Airport (17 nm NW)
KPTW - Heritage Field Airport (18 nm SW)
 
Loc | Ops | Rwys | IFR | FBO | Links
Com | Nav | Svcs | Stats | Notes
Area around PS03 (Elephant Path Airport)
 
Road maps at: MapQuest Bing Google
 
Aerial photo
No photo
 
Sectional chart

 
Airport distance calculator
Flying to Elephant Path Airport? Find the distance to fly.

From to PS03

Sunrise and sunset
Times for 19-Jan-2022
 Local
(UTC-5)
 Zulu
(UTC)
Morning civil twilight06:5211:52
Sunrise07:2112:21
Sunset17:0222:02
Evening civil twilight17:3222:32

Current date and time
Zulu (UTC)  19-Jan-2022 16:53:06
Local (UTC-5)  19-Jan-2022 11:53:06
 
METAR
KCKZ 
3nm SW 
191635Z AUTO 23009G15KT 10SM CLR 05/M04 A3004 RMK AO2
KDYL 
7nm SE 
191554Z AUTO 20011G20KT 160V230 10SM CLR 06/M06 A3004 RMK AO2 SLP180 T00561056
KUKT 
7nm W 
191635Z AUTO 18010KT 10SM CLR 05/M04 A3003 RMK A01
KXLL 
15nm NW 
191635Z AUTO 19007KT 10SM CLR 04/M03 A3004 RMK AO2
KLOM 
16nm S 
191635Z AUTO 20011G20KT 10SM CLR 06/M03 A3005 RMK AO2 T00591033
KABE 
18nm NW 
191551Z 21010KT 10SM CLR 02/M04 A3004 RMK AO2 SLP177 T00221044
KPTW 
18nm SW 
191554Z AUTO 21010G18KT 10SM CLR 04/M04 A3007 RMK AO2 SLP181 T00391044
TAF
KABE 
18nm NW 
191122Z 1912/2012 VRB03KT P6SM BKN100 WS020/21040KT FM191400 21010KT P6SM SCT100 BKN200 FM192300 22006KT P6SM OVC050 FM200400 26005KT 5SM -RA BR OVC025 FM200800 33007KT 3SM -SN BR OVC015
NOTAMs
Click for the latest NOTAMs
NOTAMs are issued by the DoD/FAA and will open in a separate window not controlled by AirNav.

 

 
 

Would you like to see your business listed on this page?

 If your business provides an interesting product or service to pilots, flight crews, aircraft, or users of the Elephant Path Airport, you should consider listing it here.  To start the listing process, click on the button below
 
Add a business
 

Other Pages about Elephant Path Airport

Update a link
 
Copyright © AirNav, LLC. All rights reserved. Privacy Policy  Contact